地図

経路データ

SID SEASON NUMBER BASIN SUBBASIN NAME ISO_TIME NATURE LAT LON WMO_WIND WMO_PRES WMO_AGENCY TRACK_TYPE DIST2LAND LANDFALL IFLAG USA_AGENCY USA_ATCF_ID USA_LAT USA_LON USA_RECORD USA_STATUS USA_WIND USA_PRES USA_SSHS USA_R34_NE USA_R34_SE USA_R34_SW USA_R34_NW USA_R50_NE USA_R50_SE USA_R50_SW USA_R50_NW USA_R64_NE USA_R64_SE USA_R64_SW USA_R64_NW USA_POCI USA_ROCI USA_RMW USA_EYE TOKYO_LAT TOKYO_LON TOKYO_GRADE TOKYO_WIND TOKYO_PRES TOKYO_R50_DIR TOKYO_R50_LONG TOKYO_R50_SHORT TOKYO_R30_DIR TOKYO_R30_LONG TOKYO_R30_SHORT TOKYO_LAND CMA_LAT CMA_LON CMA_CAT CMA_WIND CMA_PRES HKO_LAT HKO_LON HKO_CAT HKO_WIND HKO_PRES NEWDELHI_LAT NEWDELHI_LON NEWDELHI_GRADE NEWDELHI_WIND NEWDELHI_PRES NEWDELHI_CI NEWDELHI_DP NEWDELHI_POCI REUNION_LAT REUNION_LON REUNION_TYPE REUNION_WIND REUNION_PRES REUNION_TNUM REUNION_CI REUNION_RMW REUNION_R34_NE REUNION_R34_SE REUNION_R34_SW REUNION_R34_NW REUNION_R50_NE REUNION_R50_SE REUNION_R50_SW REUNION_R50_NW REUNION_R64_NE REUNION_R64_SE REUNION_R64_SW REUNION_R64_NW BOM_LAT BOM_LON BOM_TYPE BOM_WIND BOM_PRES BOM_TNUM BOM_CI BOM_RMW BOM_R34_NE BOM_R34_SE BOM_R34_SW BOM_R34_NW BOM_R50_NE BOM_R50_SE BOM_R50_SW BOM_R50_NW BOM_R64_NE BOM_R64_SE BOM_R64_SW BOM_R64_NW BOM_ROCI BOM_POCI BOM_EYE BOM_POS_METHOD BOM_PRES_METHOD NADI_LAT NADI_LON NADI_CAT NADI_WIND NADI_PRES WELLINGTON_LAT WELLINGTON_LON WELLINGTON_WIND WELLINGTON_PRES DS824_LAT DS824_LON DS824_STAGE DS824_WIND DS824_PRES TD9636_LAT TD9636_LON TD9636_STAGE TD9636_WIND TD9636_PRES TD9635_LAT TD9635_LON TD9635_WIND TD9635_PRES TD9635_ROCI NEUMANN_LAT NEUMANN_LON NEUMANN_CLASS NEUMANN_WIND NEUMANN_PRES MLC_LAT MLC_LON MLC_CLASS MLC_WIND MLC_PRES USA_GUST BOM_GUST BOM_GUST_PER REUNION_GUST REUNION_GUST_PER USA_SEAHGT USA_SEARAD_NE USA_SEARAD_SE USA_SEARAD_SW USA_SEARAD_NW STORM_SPEED STORM_DIR
1962202N20158 1962 54 WP MM LOUISE 1962-07-20 12:00:00 TS 20.2333 157.667 main 2379 2331 O_OO_____OOO__ jtwc_wp WP071962 20.2000 157.700 45 0 20.4000 157.700 1 29 1000 20.2000 157.500 TS 40 995 20.2000 157.700 TC 45 20.2000 157.700 2 45 20.2000 157.700 45 995 180 10 350
1962202N20158 1962 54 WP MM LOUISE 1962-07-20 15:00:00 TS 20.7350 157.569 main 2331 2276 P_PP_____PPP__ WP071962 20.7050 157.598 47 0 20.9150 157.598 1 33 997 20.7050 157.400 TS 42 992 20.7050 157.598 TC 47 20.6751 157.622 2 46 20.7050 157.598 46 993 180 11 346
1962202N20158 1962 54 WP MM LOUISE 1962-07-20 18:00:00 TS 21.2674 157.395 1002 tokyo main 2268 2228 OOOO_____OPO__ jtwc_wp WP071962 21.2000 157.500 50 0 22.0000 156.000 2 1002 0 0 0 21.4000 157.500 2 38 995 21.2000 157.300 TS 45 990 21.2000 157.500 TC 50 21.1601 157.535 2 48 21.2000 157.500 48 991 180 11 344
1962202N20158 1962 54 WP MM LOUISE 1962-07-20 21:00:00 TS 21.7565 157.260 main 2220 2173 PPPP_____PPP__ WP071962 21.6850 157.407 50 0 22.3400 155.863 2 1000 0 0 21.8425 157.407 2 38 991 21.6850 157.200 TS 47 987 21.6850 157.407 TC 50 21.6651 157.430 2 50 21.6850 157.407 50 989 180 10 345
1962202N20158 1962 54 WP MM LOUISE 1962-07-21 00:00:00 TS 22.2704 157.104 998 tokyo main 2164 2117 OOOO_____OOO__ jtwc_wp WP071962 22.2000 157.300 50 0 22.7000 155.800 9 998 0 0 0 22.3000 157.300 2 38 988 22.2000 157.100 STS 50 984 22.2000 157.300 TC 50 22.2000 157.300 2 52 22.2000 157.300 52 987 180 11 346
1962202N20158 1962 54 WP MM LOUISE 1962-07-21 03:00:00 TS 22.8443 156.959 main 2117 2054 PPPP_____PPP__ WP071962 22.8000 157.172 55 0 23.0925 155.862 9 996 0 0 22.8425 157.172 2 48 982 22.8074 157.022 STS 52 983 22.8000 157.172 TC 55 22.7681 157.137 2 54 22.8000 157.172 55 985 210 12 348
1962202N20158 1962 54 WP MM LOUISE 1962-07-21 06:00:00 TS 23.4064 156.835 994 tokyo main 2054 2007 OOOO_____OPO__ jtwc_wp WP071962 23.4000 157.000 60 0 23.5000 156.000 9 994 0 0 0 23.4000 157.000 3 58 976 23.4000 156.900 STS 55 983 23.4000 157.000 TC 60 23.3449 156.945 2 56 23.4000 157.000 58 983 240 11 346
1962202N20158 1962 54 WP MM LOUISE 1962-07-21 09:00:00 TS 23.9045 156.662 main 2007 1962 PPPP_____PPP__ WP071962 23.9225 156.772 60 0 23.8775 156.150 9 992 0 0 23.9225 156.758 3 58 975 23.8650 156.680 STS 55 981 23.9225 156.772 TC 60 23.8993 156.731 2 58 23.9225 156.772 59 981 210 10 340
1962202N20158 1962 54 WP MM LOUISE 1962-07-21 12:00:00 TS 24.3714 156.457 990 tokyo main 1954 1909 OOOO_____OOO__ jtwc_wp WP071962 24.4000 156.500 60 0 24.3000 156.300 9 990 0 0 0 24.4000 156.500 3 58 975 24.3000 156.400 STS 55 980 24.4000 156.500 TC 60 24.4000 156.500 2 60 24.4000 156.500 60 979 180 10 338
1962202N20158 1962 54 WP MM LOUISE 1962-07-21 15:00:00 TS 24.8566 156.247 main 1894 1848 PPPP_____PPP__ WP071962 24.8876 156.193 60 0 24.8499 156.467 9 985 0 0 24.8374 156.307 3 58 974 24.8225 156.100 STS 57 977 24.8876 156.193 TC 60 24.8235 156.280 2 62 24.8876 156.193 61 977 210 10 337
1962202N20158 1962 54 WP MM LOUISE 1962-07-21 18:00:00 TS 25.2842 156.021 980 tokyo main 1848 1811 OOOO_____OPO__ jtwc_wp WP071962 25.3000 155.900 60 0 25.4000 156.500 9 980 0 0 0 25.2000 156.100 3 58 973 25.3000 155.800 STS 60 975 25.3000 155.900 TC 60 25.1895 156.044 2 64 25.3000 155.900 62 975 240 9 331
1962202N20158 1962 54 WP MM LOUISE 1962-07-21 21:00:00 TS 25.5996 155.794 main 1811 1774 PPPP_____PPP__ WP071962 25.5723 155.707 65 1 25.8524 156.283 9 974 0 0 25.4725 155.815 3 63 972 25.6449 155.550 STS 62 972 25.5723 155.707 TC 65 25.5109 155.786 2 66 25.5723 155.707 65 972 270 7 322
1962202N20158 1962 54 WP MM LOUISE 1962-07-22 00:00:00 TS 25.8571 155.529 968 tokyo main 1766 1729 OOOO_____OOO__ jtwc_wp WP071962 25.8000 155.500 70 1 26.2000 155.900 9 968 0 0 0 25.7000 155.500 4 68 971 25.9000 155.300 T 65 970 25.8000 155.500 TC 70 25.8000 155.500 3 68 25.8000 155.500 68 970 300 7 315
1962202N20158 1962 54 WP MM LOUISE 1962-07-22 03:00:00 TS 26.1302 155.208 main 1729 1684 PPPP_____PPP__ WP071962 26.1076 155.173 70 1 26.4450 155.480 9 968 0 0 25.9422 155.230 4 68 969 26.1074 155.015 T 65 967 26.1076 155.173 TC 70 26.0944 155.211 3 69 26.1076 155.173 70 968 270 8 310
1962202N20158 1962 54 WP MM LOUISE 1962-07-22 06:00:00 TS 26.3799 154.841 968 tokyo main 1677 1640 OOOO_____OPO__ jtwc_wp WP071962 26.4000 154.800 70 1 26.6000 155.000 9 968 0 0 0 26.2000 154.900 4 68 968 26.3000 154.700 T 65 965 26.4000 154.800 TC 70 26.3590 154.889 3 71 26.4000 154.800 72 966 240 8 305
1962202N20158 1962 54 WP MM LOUISE 1962-07-22 09:00:00 TS 26.6015 154.463 main 1640 1595 PPPP_____PPP__ WP071962 26.6147 154.472 72 1 26.7000 154.500 9 968 0 0 26.5152 154.423 4 68 970 26.5573 154.380 T 65 965 26.6147 154.472 TC 72 26.5941 154.523 3 73 26.6147 154.472 73 965 240 8 300
1962202N20158 1962 54 WP MM LOUISE 1962-07-22 12:00:00 TS 26.8000 154.043 968 tokyo main 1588 1544 OOOO_____OOO__ jtwc_wp WP071962 26.8000 154.100 75 1 26.8000 154.000 9 968 0 0 0 26.8000 153.900 4 68 972 26.8000 154.000 T 65 965 26.8000 154.100 TC 75 26.8000 154.100 4 75 26.8000 154.100 75 965 240 9 297
1962202N20158 1962 54 WP MM LOUISE 1962-07-22 15:00:00 TS 26.9949 153.586 main 1544 1492 PPPP_____PPP__ WP071962 27.0149 153.638 77 1 26.9921 153.558 9 968 0 0 26.9720 153.464 4 68 974 26.9649 153.537 T 67 962 27.0149 153.638 TC 77 26.9905 153.632 4 76 27.0149 153.638 76 964 240 9 293
1962202N20158 1962 54 WP MM LOUISE 1962-07-22 18:00:00 TS 27.1645 153.072 968 tokyo main 1492 1441 OOOO_____OPO__ jtwc_wp WP071962 27.2000 153.100 80 1 27.2000 153.100 9 968 0 0 0 27.1000 153.000 4 68 976 27.1000 153.000 T 70 960 27.2000 153.100 TC 80 27.1517 153.105 4 77 27.2000 153.100 78 963 240 10 288
1962202N20158 1962 54 WP MM LOUISE 1962-07-22 21:00:00 TS 27.3015 152.505 main 1441 1391 PPPP_____PPP__ WP071962 27.3148 152.522 80 1 27.3648 152.580 9 971 0 0 27.2574 152.430 4 72 973 27.2572 152.430 T 70 960 27.3148 152.522 TC 80 27.2870 152.525 4 78 27.3148 152.522 79 962 240 11 283
1962202N20158 1962 54 WP MM LOUISE 1962-07-23 00:00:00 TS 27.4143 151.886 975 tokyo main 1391 1341 OOOO_____OOO__ jtwc_wp WP071962 27.4000 151.900 80 1 27.5000 152.000 9 975 0 0 0 27.4000 151.800 4 77 971 27.4000 151.800 T 70 960 27.4000 151.900 TC 80 27.4000 151.900 4 80 27.4000 151.900 80 961 240 11 281
1962202N20158 1962 54 WP MM LOUISE 1962-07-23 03:00:00 TS 27.5265 151.242 main 1334 1284 PPPP_____PPP__ WP071962 27.5071 151.273 80 1 27.6299 151.365 9 967 0 0 27.5224 151.150 4 77 966 27.5075 151.107 T 70 960 27.5071 151.273 TC 80 27.5043 151.251 4 80 27.5071 151.273 80 960 270 12 280
1962202N20158 1962 54 WP MM LOUISE 1962-07-23 06:00:00 TS 27.6124 150.566 960 tokyo main 1284 1227 OOOO_____OPO__ jtwc_wp WP071962 27.6000 150.600 80 1 27.7000 150.700 9 960 0 0 0 27.6000 150.500 4 77 961 27.6000 150.400 T 70 960 27.6000 150.600 TC 80 27.5869 150.560 4 80 27.6000 150.600 80 960 300 12 276
1962202N20158 1962 54 WP MM LOUISE 1962-07-23 09:00:00 TS 27.6551 149.886 main 1227 1179 PPPP_____PPP__ WP071962 27.6573 149.865 80 1 27.6567 150.079 9 960 0 0 27.5993 149.914 4 77 962 27.7066 149.772 T 70 960 27.6573 149.865 TC 80 27.6509 149.838 4 80 27.6573 149.865 80 960 300 12 273
1962202N20158 1962 54 WP MM LOUISE 1962-07-23 12:00:00 TS 27.6857 149.171 960 tokyo main 1179 1127 OOOO_____OOO__ jtwc_wp WP071962 27.7000 149.100 80 1 27.6000 149.400 9 960 0 0 0 27.6000 149.300 4 77 964 27.8000 149.100 T 70 960 27.7000 149.100 TC 80 27.7000 149.100 4 80 27.7000 149.100 80 960 300 13 274
1962202N20158 1962 54 WP MM LOUISE 1962-07-23 15:00:00 TS 27.7421 148.404 main 1127 1075 PPPP_____PPP__ WP071962 27.7571 148.350 80 1 27.6350 148.580 9 960 0 0 27.6922 148.588 4 77 965 27.8654 148.258 T 70 960 27.7571 148.350 TC 80 27.7307 148.355 4 75 27.7571 148.350 80 960 330 14 274
1962202N20158 1962 54 WP MM LOUISE 1962-07-23 18:00:00 TS 27.7928 147.614 960 tokyo main 1069 1028 OOOO_____OPO__ jtwc_wp WP071962 27.8000 147.600 80 1 27.7000 147.700 9 960 0 0 0 27.8000 147.800 4 77 967 27.9000 147.400 T 70 960 27.8000 147.600 TC 80 27.7493 147.599 4 70 27.8000 147.600 80 961 360 14 273
1962202N20158 1962 54 WP MM LOUISE 1962-07-23 21:00:00 TS 27.8137 146.838 main 1023 985 PPPP_____PPP__ WP071962 27.7996 146.850 70 1 27.7647 146.835 9 962 0 0 27.8650 146.950 4 77 967 27.8990 146.692 T 70 960 27.7996 146.850 TC 70 27.7682 146.843 4 65 27.7996 146.850 70 960 360 14 272
1962202N20158 1962 54 WP MM LOUISE 1962-07-24 00:00:00 TS 27.8286 146.071 965 tokyo main 985 942 OOOO_____OOO__ jtwc_wp WP071962 27.8000 146.100 60 0 27.8000 146.000 9 965 0 0 0 27.9000 146.100 4 77 967 27.9000 146.000 T 70 960 27.8000 146.100 TC 60 27.8000 146.100 2 60 27.8000 146.100 60 960 360 14 271
1962202N20158 1962 54 WP MM LOUISE 1962-07-24 03:00:00 TS 27.8447 145.303 main 942 898 PPPP_____PPP__ WP071962 27.8348 145.335 70 1 27.7343 145.234 9 965 0 0 27.8917 145.342 4 77 967 27.9430 145.170 T 70 960 27.8348 145.335 TC 70 27.8394 145.369 2 65 27.8348 145.335 70 959 330 13 272
1962202N20158 1962 54 WP MM LOUISE 1962-07-24 06:00:00 TS 27.8852 144.565 965 tokyo main 898 857 OOOO_____OPO__ jtwc_wp WP071962 27.9000 144.600 80 1 27.7000 144.500 9 965 0 0 0 27.9000 144.600 4 77 967 28.0000 144.400 T 70 960 27.9000 144.600 TC 80 27.8965 144.654 2 70 27.9000 144.600 80 959 300 13 275
1962202N20158 1962 54 WP MM LOUISE 1962-07-24 09:00:00 TS 27.9633 143.876 main 857 823 PPPP_____PPP__ WP071962 27.9920 143.935 80 1 27.7901 143.713 9 965 0 0 27.9552 143.770 4 77 967 28.0414 143.885 T 70 960 27.9920 143.935 TC 80 27.9803 143.962 2 75 27.9920 143.935 80 961 270 12 280
1962202N20158 1962 54 WP MM LOUISE 1962-07-24 12:00:00 TS 28.0857 143.229 965 tokyo main 820 789 OOOO_____OOO__ jtwc_wp WP071962 28.1000 143.300 80 1 28.0000 143.000 9 965 0 0 0 28.1000 143.000 4 77 968 28.1000 143.400 T 70 960 28.1000 143.300 TC 80 28.1000 143.300 3 80 28.1000 143.300 80 963 240 12 284
1962202N20158 1962 54 WP MM LOUISE 1962-07-24 15:00:00 TS 28.2404 142.596 main 789 751 PPPP_____PPP__ WP071962 28.1699 142.634 80 1 28.3642 142.478 9 965 0 0 28.3843 142.413 4 77 968 28.1703 142.715 T 70 962 28.1699 142.634 TC 80 28.2547 142.663 3 80 28.1699 142.634 80 965 240 11 288
1962202N20158 1962 54 WP MM LOUISE 1962-07-24 18:00:00 TS 28.4351 141.994 965 tokyo main 751 712 OOOO_____OPO__ jtwc_wp WP071962 28.3000 142.000 80 1 28.7000 142.000 9 965 0 0 0 28.7000 141.900 4 77 968 28.3000 142.000 T 70 965 28.3000 142.000 TC 80 28.4460 142.055 3 80 28.3000 142.000 80 967 240 11 292
1962202N20158 1962 54 WP MM LOUISE 1962-07-24 21:00:00 TS 28.6521 141.417 main 702 665 PPPP_____PPP__ WP071962 28.5696 141.435 80 1 28.7499 141.413 9 965 0 0 28.9149 141.342 4 77 968 28.5269 141.392 T 67 967 28.5696 141.435 TC 80 28.6643 141.469 3 80 28.5696 141.435 80 969 240 11 295
1962202N20158 1962 54 WP MM LOUISE 1962-07-25 00:00:00 TS 28.9000 140.857 965 tokyo main 665 618 OOOO_____OOO__ jtwc_wp WP071962 28.9000 140.900 80 1 28.8000 140.800 9 965 0 0 0 29.1000 140.800 4 77 969 28.8000 140.800 T 65 970 28.9000 140.900 TC 80 28.9000 140.900 4 80 28.9000 140.900 80 972 240 11 298
1962202N20158 1962 54 WP MM LOUISE 1962-07-25 03:00:00 TS 29.1845 140.282 main 618 585 PPPP_____PPP__ WP071962 29.2148 140.350 80 1 29.1426 140.171 9 967 0 0 29.3072 140.292 4 77 969 29.0500 140.142 T 65 972 29.2148 140.350 TC 80 29.1474 140.316 4 80 29.2148 140.350 80 972 240 11 299
1962202N20158 1962 54 WP MM LOUISE 1962-07-25 06:00:00 TS 29.4581 139.721 970 tokyo main 570 523 OOOO_____OPO__ jtwc_wp WP071962 29.5000 139.800 80 1 29.5000 139.600 9 970 0 0 0 29.5000 139.800 4 77 970 29.3000 139.500 T 65 975 29.5000 139.800 TC 80 29.4070 139.748 4 80 29.5000 139.800 80 973 240 11 297
1962202N20158 1962 54 WP MM LOUISE 1962-07-25 09:00:00 TS 29.6624 139.191 main 523 486 PPPP_____PPP__ WP071962 29.7224 139.242 80 1 29.6144 139.184 9 970 0 0 29.6498 139.300 4 77 970 29.5422 138.920 T 65 975 29.7224 139.242 TC 80 29.6632 139.206 4 80 29.7224 139.242 80 973 240 10 293
1962202N20158 1962 54 WP MM LOUISE 1962-07-25 12:00:00 TS 29.8429 138.686 970 tokyo main 486 441 OOOO_____OOO__ jtwc_wp WP071962 29.9000 138.700 80 1 29.7000 138.800 9 970 0 0 0 29.8000 138.800 4 77 971 29.8000 138.400 T 65 975 29.9000 138.700 TC 80 29.9000 138.700 4 80 29.9000 138.700 80 973 240 10 293
1962202N20158 1962 54 WP MM LOUISE 1962-07-25 15:00:00 TS 30.0356 138.174 main 441 399 PPPP_____PPP__ WP071962 30.0499 138.170 80 1 29.9276 138.300 9 970 0 0 29.9850 138.285 4 77 971 30.1074 137.913 T 65 972 30.0499 138.170 TC 80 30.0797 138.213 4 78 30.0499 138.170 80 972 240 9 295
1962202N20158 1962 54 WP MM LOUISE 1962-07-25 18:00:00 TS 30.2346 137.709 970 tokyo main 399 363 OOOO_____OPO__ jtwc_wp WP071962 30.2000 137.700 80 1 30.2000 137.800 9 970 0 0 0 30.2000 137.800 4 77 971 30.4000 137.500 T 65 970 30.2000 137.700 TC 80 30.2419 137.766 4 77 30.2000 137.700 80 972 240 8 299
1962202N20158 1962 54 WP MM LOUISE 1962-07-25 21:00:00 TS 30.4373 137.326 main 363 332 PPPP_____PPP__ WP071962 30.3773 137.320 77 1 30.4496 137.400 9 970 0 0 30.4573 137.378 4 77 971 30.6147 137.185 T 65 970 30.3773 137.320 TC 77 30.4081 137.360 4 76 30.3773 137.320 77 971 240 8 304
1962202N20158 1962 54 WP MM LOUISE 1962-07-26 00:00:00 TS 30.6571 136.986 970 tokyo main 321 288 OOOO_____OOO__ jtwc_wp WP071962 30.6000 137.000 75 1 30.7000 137.000 9 970 0 0 0 30.7000 137.000 4 77 971 30.8000 136.900 T 65 970 30.6000 137.000 TC 75 30.6000 137.000 4 75 30.6000 137.000 75 970 240 8 308
1962202N20158 1962 54 WP MM LOUISE 1962-07-26 03:00:00 TS 30.9039 136.624 main 288 260 PPPP_____PPP__ WP071962 30.8924 136.685 75 1 30.9428 136.485 9 970 0 0 30.8649 136.627 4 77 971 30.9926 136.542 T 65 970 30.8924 136.685 TC 75 30.8499 136.658 4 73 30.8924 136.685 75 970 210 8 310
1962202N20158 1962 54 WP MM LOUISE 1962-07-26 06:00:00 TS 31.1610 136.294 970 tokyo main 249 223 OOOO_____OPO__ jtwc_wp WP071962 31.2000 136.400 75 1 31.2000 136.000 9 970 0 0 0 31.0000 136.300 4 77 971 31.2000 136.200 T 65 970 31.2000 136.400 TC 75 31.1270 136.360 4 71 31.2000 136.400 75 971 180 7 314
1962202N20158 1962 54 WP MM LOUISE 1962-07-26 09:00:00 TS 31.4072 136.015 main 223 200 PPPP_____PPP__ WP071962 31.4574 136.135 72 1 31.4998 135.655 9 972 0 0 31.1199 136.020 4 77 971 31.4424 135.920 T 65 970 31.4574 136.135 TC 72 31.4157 136.108 4 69 31.4574 136.135 71 971 180 7 319
1962202N20158 1962 54 WP MM LOUISE 1962-07-26 12:00:00 TS 31.6571 135.786 975 tokyo main 189 168 OOOO_____OOO__ jtwc_wp WP071962 31.7000 135.900 70 1 31.8000 135.400 9 975 0 0 0 31.3000 135.800 4 77 971 31.7000 135.700 T 65 970 31.7000 135.900 TC 70 31.7000 135.900 4 68 31.7000 135.900 68 972 180 6 323
1962202N20158 1962 54 WP MM LOUISE 1962-07-26 15:00:00 TS 31.9150 135.574 main 168 138 PPPP_____PPP__ WP071962 31.9500 135.670 67 1 32.0650 135.162 9 972 0 0 31.6275 135.620 4 77 971 31.9424 135.535 T 65 970 31.9500 135.670 TC 67 31.9204 135.691 4 66 31.9500 135.670 66 972 180 6 329
1962202N20158 1962 54 WP MM LOUISE 1962-07-26 18:00:00 TS 32.1771 135.419 970 tokyo main 138 120 OOOO_____OPO__ jtwc_wp WP071962 32.2000 135.500 65 1 32.3000 135.000 9 970 0 0 0 32.0000 135.500 4 77 971 32.2000 135.400 T 65 970 32.2000 135.500 TC 65 32.1397 135.530 4 65 32.2000 135.500 65 973 180 5 336
1962202N20158 1962 54 WP MM LOUISE 1962-07-26 21:00:00 TS 32.3998 135.318 main 120 90 PPPP_____PPP__ WP071962 32.4124 135.420 62 0 32.4549 134.883 9 970 0 0 32.2625 135.427 4 77 971 32.4550 135.228 T 57 972 32.4124 135.420 TC 62 32.3892 135.429 4 63 32.4124 135.420 63 973 180 5 348
1962202N20158 1962 54 WP MM LOUISE 1962-07-27 00:00:00 TS 32.7000 135.286 970 tokyo main 90 48 OOOO_____OOO__ jtwc_wp WP071962 32.7000 135.400 60 0 32.7000 134.900 9 970 0 0 0 32.6000 135.400 4 77 971 32.8000 135.100 STS 50 975 32.7000 135.400 TC 60 32.7000 135.400 2 62 32.7000 135.400 62 974 180 8 357
1962202N20158 1962 54 WP MM LOUISE 1962-07-27 03:00:00 TS 33.2001 135.279 main 48 0 PPPP_____PPP__ WP071962 33.1699 135.356 55 0 33.2201 135.097 9 974 0 0 33.1850 135.363 4 72 974 33.3273 135.026 STS 42 977 33.1699 135.356 TC 55 33.1585 135.404 2 56 33.1699 135.356 56 975 180 11 3
1962202N20158 1962 54 WP MM LOUISE 1962-07-27 06:00:00 TS 33.7531 135.369 978 tokyo main 0 0 OOOO_____OPO__ jtwc_wp WP071962 33.7000 135.400 50 0 33.8000 135.400 9 978 0 0 0 33.8000 135.400 4 68 978 33.9000 135.100 TS 35 980 33.7000 135.400 TC 50 33.6716 135.484 2 50 33.7000 135.400 50 977 180 11 14
1962202N20158 1962 54 WP MM LOUISE 1962-07-27 09:00:00 TS 34.2370 135.589 main 0 0 PPPP_____PPP__ WP071962 34.1950 135.604 45 0 34.2375 135.700 9 983 0 0 34.2449 135.547 4 58 983 34.4178 135.411 TS 32 982 34.1950 135.604 TC 45 34.1739 135.648 2 44 34.1950 135.604 44 978 180 10 26
1962202N20158 1962 54 WP MM LOUISE 1962-07-27 12:00:00 TS 34.6286 135.886 988 tokyo main 0 0 OOOO_____OOO__ jtwc_wp WP071962 34.6000 135.900 40 0 34.6000 136.000 9 988 0 0 0 34.6000 135.800 3 48 988 34.8000 135.800 TD 30 985 34.6000 135.900 TC 40 34.6000 135.900 2 38 34.6000 135.900 38 979 180 8 35
1962202N20158 1962 54 WP MM LOUISE 1962-07-27 15:00:00 TS 34.8823 136.137 main 0 0 PPPP_____PPP__ WP071962 34.8446 136.156 35 0 34.9370 136.213 9 992 0 0 34.9372 136.098 3 43 992 34.9294 136.021 TD 27 986 34.8446 136.156 TC 35 34.8388 136.161 2 36 34.8446 136.156 35 980 150 6 48
1962202N20158 1962 54 WP MM LOUISE 1962-07-27 18:00:00 TS 35.0570 136.474 996 tokyo main 0 0 OOOO_____OPO__ jtwc_wp WP071962 35.0000 136.500 30 -1 35.2000 136.500 9 996 0 0 0 35.2000 136.500 2 38 996 35.0000 136.300 TD 25 988 35.0000 136.500 TC 30 34.9988 136.515 2 34 35.0000 136.500 32 982 120 7 63
1962202N20158 1962 54 WP MM LOUISE 1962-07-27 21:00:00 TS 35.2121 136.929 main 0 0 PPPP_____PPP__ WP071962 35.1416 136.953 30 -1 35.3419 136.954 9 998 0 0 35.3567 136.969 2 33 998 35.2264 136.730 TD 25 994 35.1416 136.953 TC 30 35.1345 136.987 2 32 35.1416 136.953 31 983 120 10 70
1962202N20158 1962 54 WP MM LOUISE 1962-07-28 00:00:00 TS 35.3815 137.578 1000 tokyo main 0 0 OOOO_____OOO__ jtwc_wp WP071962 35.3000 137.600 30 -1 35.5000 137.600 2 1000 0 0 0 35.5000 137.600 1 29 1000 35.5000 137.400 TD 25 1000 35.3000 137.600 TC 30 35.3000 137.600 1 30 35.3000 137.600 30 985 120 13 72
1962202N20158 1962 54 WP MM LOUISE 1962-07-28 03:00:00 TS 35.6252 138.457 main 0 0 PPPP_____PPP__ WP071962 35.5207 138.498 30 -1 35.8507 138.461 2 1002 0 0 35.7357 138.462 1 29 1000 35.7604 138.363 TD 25 1000 35.5207 138.498 TC 30 35.5355 138.370 1 28 35.5207 138.498 29 986 120 16 70
1962202N20158 1962 54 WP MM LOUISE 1962-07-28 06:00:00 MX 35.9281 139.429 1004 tokyo main 0 0 OOOO_____OPO__ jtwc_wp WP071962 35.8000 139.500 30 -1 36.2000 139.400 6 1004 0 0 0 36.0000 139.400 1 29 1000 36.0000 139.500 TD 25 1000 35.8000 139.500 TC 30 35.8297 139.269 1 27 35.8000 139.500 28 987 120 16 69
1962202N20158 1962 54 WP MM LOUISE 1962-07-28 09:00:00 MX 36.2090 140.302 main 0 0 PPP______PPP__ WP071962 36.1355 140.429 27 -1 36.3342 140.218 6 1003 0 0 36.2192 140.217 1 1001 TD 36.1355 140.429 TC 27 36.1588 140.259 1 26 36.1355 140.429 26 988 120 15 67
1962202N20158 1962 54 WP MM LOUISE 1962-07-28 12:00:00 MX 36.5000 141.100 1003 tokyo main 42 42 OOO______OOO__ jtwc_wp WP071962 36.5000 141.300 25 -1 36.5000 141.000 6 1003 0 0 0 36.5000 141.000 0 1003 36.5000 141.300 TC 25 36.5000 141.300 1 25 36.5000 141.300 25 990 120 14 60
1962202N20158 1962 54 WP MM LOUISE 1962-07-28 15:00:00 MX 36.9123 141.815 main 71 71 _PP___________ WP071962 -1 36.9048 141.814 6 1003 0 0 36.9198 141.815 0 1003 TC 1 15 53
1962202N20158 1962 54 WP MM LOUISE 1962-07-28 18:00:00 MX 37.4000 142.600 1004 tokyo main 139 137 _OO___________ -1 37.4000 142.600 6 1004 0 0 0 37.4000 142.600 0 1004 1 15 53
1962202N20158 1962 54 WP MM LOUISE 1962-07-28 21:00:00 MX 37.8193 143.317 main 166 166 _PP___________ -1 37.8193 143.317 6 1004 0 0 37.8193 143.317 0 1004 1 14 51
1962202N20158 1962 54 WP MM LOUISE 1962-07-29 00:00:00 MX 38.3000 144.000 1004 tokyo main 205 205 _OO___________ -1 38.3000 144.000 6 1004 0 0 0 38.3000 144.000 0 1004 16 44
1962202N20158 1962 54 WP MM LOUISE 1962-07-29 03:00:00 MX 38.9500 144.721 main 233 233 _PP___________ -1 38.9500 144.721 6 1004 0 0 38.9500 144.721 0 1004 17 40
1962202N20158 1962 54 WP MM LOUISE 1962-07-29 06:00:00 MX 39.6000 145.400 1004 tokyo main 282 282 _OO___________ -1 39.6000 145.400 6 1004 0 0 0 39.6000 145.400 0 1004 15 40
1962202N20158 1962 54 WP MM LOUISE 1962-07-29 09:00:00 MX 40.1002 145.980 main 308 297 _PP___________ -1 40.1002 145.980 6 1005 0 0 40.1002 145.980 0 1005 12 43
1962202N20158 1962 54 WP MM LOUISE 1962-07-29 12:00:00 MX 40.5000 146.500 1006 tokyo main 301 _OO___________ -1 40.5000 146.500 6 1006 0 0 0 40.5000 146.500 0 1006 11 45

デジタル台風データ・検索

IBTrACS Databaseについて

本データベースは、米国NOAAが公開する1842年以降の世界の熱帯低気圧のベストトラックデータアーカイブInternational Best Track Archive for Climate Stewardship (IBTrACS)を、ウェブで閲覧しやすい形式に変換したものです。

最終更新日:2021-11-26